Time,TemperatureF,DewpointF,PressureIn,WindDirection,WindDirectionDegrees,WindSpeedMPH,WindSpeedGustMPH,Humidity,HourlyPrecipIn,Conditions,Clouds,dailyrainin,SoftwareType,DateUTC
2014-01-02 00:42:00,43.0,14.0,29.51,WNW,295,10.0,16.0,30,0.00,,,0.00,,2014-01-02 07:42:00,
2014-01-02 00:52:00,42.0,14.0,29.52,WNW,300,5.0,16.0,31,0.00,,,0.00,,2014-01-02 07:52:00,
2014-01-02 01:42:00,44.0,14.0,29.53,NW,312,1.0,6.0,29,0.00,,,0.00,,2014-01-02 08:42:00,
2014-01-02 04:42:00,39.0,15.0,29.54,SW,236,17.0,19.0,37,0.00,,,0.00,,2014-01-02 11:42:00,
2014-01-02 10:42:00,40.0,20.0,29.65,SSW,196,3.0,6.0,45,0.00,,,0.00,,2014-01-02 17:42:00,
2014-01-02 10:52:00,40.0,20.0,29.65,South,184,3.0,6.0,45,0.00,,,0.00,,2014-01-02 17:52:00,
2014-01-02 11:12:00,41.0,21.0,29.65,South,176,3.0,6.0,44,0.00,,,0.00,,2014-01-02 18:12:00,
2014-01-02 11:22:00,42.0,21.0,29.65,South,184,2.0,5.0,43,0.00,,,0.00,,2014-01-02 18:22:00,
2014-01-02 11:43:00,43.0,22.0,29.64,ESE,105,3.0,6.0,42,0.00,,,0.00,,2014-01-02 18:43:00,
2014-01-02 11:53:00,43.0,21.0,29.63,South,176,3.0,6.0,41,0.00,,,0.00,,2014-01-02 18:53:00,
2014-01-02 12:11:00,43.0,22.0,29.62,ENE,65,2.0,5.0,43,0.00,,,0.00,,2014-01-02 19:11:00,
2014-01-02 12:22:00,43.0,21.0,29.61,ENE,78,5.0,7.0,41,0.00,,,0.00,,2014-01-02 19:22:00,
2014-01-02 12:42:00,43.0,22.0,29.61,NE,45,6.0,9.0,43,0.00,,,0.00,,2014-01-02 19:42:00,
2014-01-02 12:52:00,46.0,22.0,29.60,ESE,104,7.0,12.0,39,0.00,,,0.00,,2014-01-02 19:52:00,
2014-01-02 13:11:00,45.0,22.0,29.59,NE,54,6.0,9.0,39,0.00,,,0.00,,2014-01-02 20:11:00,
2014-01-02 13:22:00,46.0,22.0,29.58,ENE,72,5.0,10.0,39,0.00,,,0.00,,2014-01-02 20:22:00,
2014-01-02 13:42:00,46.0,22.0,29.58,East,94,6.0,10.0,39,0.00,,,0.00,,2014-01-02 20:42:00,
2014-01-02 13:52:00,45.0,22.0,29.57,ENE,67,7.0,11.0,40,0.00,,,0.00,,2014-01-02 20:52:00,
2014-01-02 14:12:00,44.0,22.0,29.57,East,89,6.0,9.0,41,0.00,,,0.00,,2014-01-02 21:12:00,
2014-01-02 14:22:00,45.0,23.0,29.56,ENE,60,5.0,10.0,41,0.00,,,0.00,,2014-01-02 21:22:00,
2014-01-02 14:44:00,46.0,22.0,29.56,NE,55,6.0,10.0,39,0.00,,,0.00,,2014-01-02 21:44:00,
2014-01-02 14:53:00,45.0,22.0,29.56,ENE,57,5.0,9.0,39,0.00,,,0.00,,2014-01-02 21:53:00,
2014-01-02 15:13:00,45.0,22.0,29.56,ENE,59,7.0,8.0,39,0.00,,,0.00,,2014-01-02 22:13:00,
2014-01-02 15:23:00,45.0,22.0,29.56,ENE,69,6.0,9.0,40,0.00,,,0.00,,2014-01-02 22:23:00,
2014-01-02 15:43:00,45.0,22.0,29.55,ENE,63,7.0,9.0,40,0.00,,,0.00,,2014-01-02 22:43:00,
2014-01-02 15:53:00,45.0,22.0,29.55,ENE,63,7.0,9.0,40,0.00,,,0.00,,2014-01-02 22:53:00,
2014-01-02 16:02:00,45.0,22.0,29.55,ENE,63,7.0,9.0,40,0.00,,,0.00,,2014-01-02 23:02:00,
2014-01-02 16:12:00,45.0,22.0,29.55,ENE,63,7.0,9.0,40,0.00,,,0.00,,2014-01-02 23:12:00,
2014-01-02 16:22:00,45.0,22.0,29.55,ENE,66,5.0,7.0,40,0.00,,,0.00,,2014-01-02 23:22:00,
2014-01-02 16:43:00,46.0,22.0,29.55,East,80,5.0,8.0,38,0.00,,,0.00,,2014-01-02 23:43:00,
2014-01-02 16:53:00,46.0,22.0,29.54,East,86,5.0,6.0,38,0.00,,,0.00,,2014-01-02 23:53:00,
2014-01-02 17:11:00,46.0,21.0,29.54,East,80,6.0,8.0,37,0.00,,,0.00,,2014-01-03 00:11:00,
2014-01-02 17:22:00,45.0,21.0,29.54,East,81,5.0,6.0,38,0.00,,,0.00,,2014-01-03 00:22:00,
2014-01-02 17:42:00,45.0,20.0,29.54,ENE,75,6.0,8.0,37,0.00,,,0.00,,2014-01-03 00:42:00,
2014-01-02 17:52:00,44.0,20.0,29.54,East,82,7.0,9.0,38,0.00,,,0.00,,2014-01-03 00:52:00,
2014-01-02 18:11:00,44.0,20.0,29.54,East,81,8.0,10.0,38,0.00,,,0.00,,2014-01-03 01:11:00,
2014-01-02 18:22:00,44.0,21.0,29.55,East,81,7.0,10.0,39,0.00,,,0.00,,2014-01-03 01:22:00,
2014-01-02 18:42:00,44.0,20.0,29.55,ENE,78,7.0,9.0,38,0.00,,,0.00,,2014-01-03 01:42:00,
2014-01-02 18:52:00,44.0,20.0,29.55,East,79,4.0,8.0,38,0.00,,,0.00,,2014-01-03 01:52:00,
2014-01-02 19:22:00,43.0,21.0,29.55,South,180,4.0,7.0,41,0.00,,,0.00,,2014-01-03 02:22:00,
2014-01-02 19:42:00,43.0,20.0,29.55,SSW,201,4.0,8.0,40,0.00,,,0.00,,2014-01-03 02:42:00,
2014-01-02 19:53:00,43.0,20.0,29.55,South,171,6.0,10.0,40,0.00,,,0.00,,2014-01-03 02:53:00,
2014-01-02 20:43:00,44.0,20.0,29.55,ENE,74,7.0,13.0,38,0.00,,,0.00,,2014-01-03 03:43:00,
2014-01-02 20:54:00,44.0,21.0,29.55,ENE,76,10.0,14.0,40,0.00,,,0.00,,2014-01-03 03:54:00,